Time;durP1;ratioP1;P1;durP2;ratioP2;P2;SDS_P1;SDS_P2;PMS_P1;PMS_P2;Temp;Humidity;BMP_temperature;BMP_pressure;BME280_temperature;BME280_humidity;BME280_pressure;Samples;Min_cycle;Max_cycle;Signal;HPM_P1;HPM_P2
2022/03/31 04:22:37;;;;;;;39.30;18.48;;;;;;;5.15;99.83;98378.28;5129685;27;20116;-73
2022/03/31 04:25:07;;;;;;;30.58;16.48;;;;;;;5.12;98.80;98383.09;5111936;28;20067;-74
2022/03/31 04:27:34;;;;;;;33.70;17.02;;;;;;;5.12;99.04;98383.94;5129810;28;20035;-72
2022/03/31 04:30:04;;;;;;;39.58;17.85;;;;;;;5.12;99.71;98383.09;5129805;27;20035;-72
2022/03/31 04:32:30;;;;;;;34.40;17.83;;;;;;;5.07;99.47;98373.09;5138639;22;20048;-76
2022/03/31 04:34:56;;;;;;;33.22;17.58;;;;;;;5.14;98.89;98379.28;5109493;28;20081;-77
2022/03/31 04:37:22;;;;;;;34.55;17.30;;;;;;;5.03;100.00;98371.84;5109358;28;20036;-77
2022/03/31 04:39:48;;;;;;;35.50;17.20;;;;;;;5.04;100.00;98376.13;5107930;28;20099;-77
2022/03/31 04:42:14;;;;;;;40.33;18.02;;;;;;;5.06;100.00;98362.72;5109236;28;20481;-76
2022/03/31 04:44:39;;;;;;;38.50;17.42;;;;;;;5.13;100.00;98380.28;5107803;28;20028;-77
2022/03/31 04:47:07;;;;;;;31.50;16.65;;;;;;;5.09;100.00;98370.28;5109044;28;20067;-75
2022/03/31 04:49:33;;;;;;;38.10;18.30;;;;;;;5.03;100.00;98356.00;5090899;28;20036;-77
2022/03/31 04:51:59;;;;;;;31.63;16.20;;;;;;;5.09;100.00;98368.47;5108500;28;20119;-77
2022/03/31 04:54:25;;;;;;;34.78;17.75;;;;;;;5.01;100.00;98365.91;5109150;28;20035;-77
2022/03/31 04:56:51;;;;;;;35.85;17.05;;;;;;;5.01;100.00;98371.19;5107898;28;20036;-77
2022/03/31 04:59:16;;;;;;;40.22;18.35;;;;;;;4.98;100.00;98366.28;5074349;28;20127;-77
2022/03/31 05:01:42;;;;;;;41.47;19.88;;;;;;;4.93;100.00;98373.13;5109092;28;20051;-79
2022/03/31 05:04:09;;;;;;;37.20;17.45;;;;;;;5.00;100.00;98372.19;5107640;28;20032;-77
2022/03/31 05:06:35;;;;;;;34.28;18.25;;;;;;;4.96;100.00;98367.47;5107990;28;20388;-77
2022/03/31 05:09:02;;;;;;;39.05;18.40;;;;;;;5.02;100.00;98366.72;5109041;28;20044;-77
2022/03/31 05:11:28;;;;;;;37.13;17.95;;;;;;;4.99;100.00;98367.09;5109313;28;20036;-79
2022/03/31 05:13:53;;;;;;;38.75;19.17;;;;;;;4.94;100.00;98370.28;5108930;28;20508;-78
2022/03/31 05:16:19;;;;;;;37.22;18.50;;;;;;;4.88;100.00;98358.63;5110538;28;20085;-79
2022/03/31 05:18:46;;;;;;;39.13;18.67;;;;;;;4.89;100.00;98362.13;5107790;28;20040;-77
2022/03/31 05:21:12;;;;;;;38.53;18.98;;;;;;;4.92;100.00;98366.19;5074094;28;20055;-77
2022/03/31 05:23:37;;;;;;;43.35;18.50;;;;;;;4.88;100.00;98363.91;5108508;28;20043;-77
2022/03/31 05:26:03;;;;;;;37.42;18.83;;;;;;;4.86;100.00;98362.47;5108454;28;20040;-78
2022/03/31 05:28:30;;;;;;;41.35;18.45;;;;;;;4.84;100.00;98349.47;5112977;28;20538;-77
2022/03/31 05:30:55;;;;;;;39.60;19.40;;;;;;;4.89;100.00;98355.03;5108893;28;20035;-77
2022/03/31 05:33:21;;;;;;;44.38;18.35;;;;;;;4.92;100.00;98353.00;5097314;28;20063;-79
2022/03/31 05:35:46;;;;;;;38.13;18.50;;;;;;;4.92;100.00;98353.81;5094960;28;20036;-78
2022/03/31 05:38:12;;;;;;;38.58;19.02;;;;;;;4.87;100.00;98358.81;5078325;28;20111;-77
2022/03/31 05:40:38;;;;;;;40.67;18.63;;;;;;;4.78;100.00;98355.47;5095061;28;20139;-78
2022/03/31 05:43:04;;;;;;;41.33;18.60;;;;;;;4.86;100.00;98346.63;5095527;28;20043;-77
2022/03/31 05:45:29;;;;;;;42.13;19.45;;;;;;;4.93;100.00;98347.53;5094422;28;20040;-74
2022/03/31 05:47:55;;;;;;;41.63;18.50;;;;;;;4.87;100.00;98343.00;5093038;28;20081;-75
2022/03/31 05:50:21;;;;;;;45.30;20.38;;;;;;;4.90;100.00;98348.75;5092836;28;20036;-75
2022/03/31 05:52:46;;;;;;;40.97;18.85;;;;;;;4.91;100.00;98349.56;5093740;28;20043;-75
2022/03/31 05:55:15;;;;;;;46.10;20.65;;;;;;;4.89;100.00;98348.94;5094136;28;20039;-75
2022/03/31 05:57:41;;;;;;;43.92;19.92;;;;;;;4.89;100.00;98349.75;5094149;28;20039;-76
2022/03/31 06:00:12;;;;;;;47.50;20.65;;;;;;;4.92;100.00;98348.53;5094099;28;20028;-74
2022/03/31 06:02:39;;;;;;;50.55;22.48;;;;;;;4.80;100.00;98342.09;5092332;28;20040;-74
2022/03/31 06:05:06;;;;;;;44.63;20.08;;;;;;;4.81;100.00;98356.91;5093842;28;20028;-75
2022/03/31 06:07:32;;;;;;;49.30;21.70;;;;;;;4.86;100.00;98355.38;5093830;28;20093;-75
2022/03/31 06:09:57;;;;;;;44.30;20.45;;;;;;;4.89;100.00;98352.38;5092477;28;20032;-74
2022/03/31 06:12:23;;;;;;;43.85;20.60;;;;;;;4.91;100.00;98360.09;5093297;28;20040;-72
2022/03/31 06:14:49;;;;;;;48.00;20.42;;;;;;;4.91;100.00;98354.81;5093374;28;20036;-73
2022/03/31 06:17:14;;;;;;;39.13;19.00;;;;;;;4.88;100.00;98366.53;5095511;28;20089;-73
2022/03/31 06:19:40;;;;;;;46.55;21.35;;;;;;;4.92;100.00;98360.94;5093712;28;20044;-74
2022/03/31 06:22:07;;;;;;;42.70;19.90;;;;;;;4.88;100.00;98365.72;5094600;28;20036;-74
2022/03/31 06:24:34;;;;;;;46.63;20.95;;;;;;;4.79;100.00;98356.28;5094554;28;20043;-73
2022/03/31 06:27:00;;;;;;;52.75;23.10;;;;;;;4.87;100.00;98369.38;5094990;28;20031;-73
2022/03/31 06:29:27;;;;;;;48.22;21.65;;;;;;;4.87;100.00;98364.09;5094368;28;20040;-73
2022/03/31 06:31:53;;;;;;;48.75;20.73;;;;;;;4.88;100.00;98363.09;5093446;28;20131;-74
2022/03/31 06:34:20;;;;;;;52.47;22.58;;;;;;;4.84;100.00;98349.47;5094681;28;20678;-73
2022/03/31 06:36:46;;;;;;;54.75;23.15;;;;;;;4.85;100.00;98352.91;5094394;28;20043;-73
2022/03/31 06:39:13;;;;;;;52.55;22.13;;;;;;;4.85;100.00;98350.28;5093484;28;20036;-73
2022/03/31 06:41:39;;;;;;;55.05;22.90;;;;;;;4.87;100.00;98349.09;5091831;28;20060;-73
2022/03/31 06:44:08;;;;;;;47.70;21.92;;;;;;;4.96;100.00;98351.66;5092374;28;20116;-72
2022/03/31 06:46:35;;;;;;;45.80;20.25;;;;;;;4.93;100.00;98350.19;5093643;28;20036;-75
2022/03/31 06:49:01;;;;;;;49.92;21.60;;;;;;;4.94;100.00;98349.16;5093506;28;20475;-74
2022/03/31 06:51:28;;;;;;;47.55;20.60;;;;;;;4.96;100.00;98357.75;5094076;28;20127;-75
2022/03/31 06:53:57;;;;;;;48.63;20.52;;;;;;;4.86;100.00;98351.91;5092002;28;20036;-71
2022/03/31 06:56:27;;;;;;;46.42;20.48;;;;;;;4.90;100.00;98346.09;5094652;28;20032;-74
2022/03/31 06:58:58;;;;;;;50.67;21.65;;;;;;;4.93;100.00;98344.91;5092855;28;20028;-73
2022/03/31 07:01:25;;;;;;;48.85;22.60;;;;;;;4.89;100.00;98339.19;5092960;28;20059;-74
2022/03/31 07:03:51;;;;;;;49.03;20.05;;;;;;;5.01;100.00;98342.16;5094425;28;20036;-71
2022/03/31 07:06:18;;;;;;;46.83;20.13;;;;;;;5.01;100.00;98339.53;5092758;28;20039;-71
2022/03/31 07:08:43;;;;;;;52.15;21.73;;;;;;;4.98;100.00;98339.91;5091537;28;20059;-71
2022/03/31 07:11:10;;;;;;;46.05;20.73;;;;;;;5.01;100.00;98334.25;5092695;28;20443;-72
2022/03/31 07:13:36;;;;;;;52.33;22.90;;;;;;;5.06;100.00;98338.97;5092452;28;20085;-72
2022/03/31 07:16:03;;;;;;;44.33;20.08;;;;;;;5.04;100.00;98333.88;5092583;28;20073;-72
2022/03/31 07:18:29;;;;;;;48.03;21.30;;;;;;;5.10;100.00;98340.25;5091390;28;20554;-72
2022/03/31 07:20:57;;;;;;;47.50;21.35;;;;;;;5.13;100.00;98339.88;5092455;28;20040;-72
2022/03/31 07:23:25;;;;;;;49.15;19.45;;;;;;;5.19;100.00;98336.50;5092349;28;20144;-72
2022/03/31 07:25:55;;;;;;;47.53;20.77;;;;;;;5.26;100.00;98341.84;5092781;28;20028;-72
2022/03/31 07:28:21;;;;;;;49.47;22.20;;;;;;;5.26;100.00;98345.31;5092354;28;20400;-72
2022/03/31 07:30:47;;;;;;;46.75;20.77;;;;;;;5.29;100.00;98338.84;5090945;28;20028;-72
2022/03/31 07:33:13;;;;;;;44.53;21.02;;;;;;;5.32;100.00;98334.00;5091644;28;20077;-72
2022/03/31 07:35:42;;;;;;;46.03;19.98;;;;;;;5.37;100.00;98338.75;5092176;28;20036;-72
2022/03/31 07:38:08;;;;;;;41.95;19.55;;;;;;;5.50;100.00;98336.25;5092433;28;20086;-73
2022/03/31 07:40:37;;;;;;;54.75;21.20;;;;;;;5.58;100.00;98341.41;5092876;28;20032;-72
2022/03/31 07:43:04;;;;;;;52.13;22.65;;;;;;;5.58;100.00;98341.41;5091850;28;20497;-73
2022/03/31 07:45:32;;;;;;;48.70;22.38;;;;;;;5.58;100.00;98338.75;5092157;28;20039;-72
2022/03/31 07:47:58;;;;;;;;;;;;;;;5.70;100.00;98339.91;5091176;28;20044;-73
2022/03/31 07:50:23;;;;;;;40.00;19.63;;;;;;;5.60;100.00;98347.31;5090613;28;19923;-72
2022/03/31 07:52:49;;;;;;;50.55;20.67;;;;;;;5.63;100.00;98341.66;5091562;28;20112;-73
2022/03/31 07:55:17;;;;;;;50.00;21.95;;;;;;;5.68;100.00;98346.41;5091583;28;20032;-73
2022/03/31 07:57:44;;;;;;;47.05;20.13;;;;;;;5.73;100.00;98347.44;5091893;28;20039;-72
2022/03/31 08:00:12;;;;;;;45.35;18.63;;;;;;;5.76;100.00;98340.16;5091789;28;20400;-72
2022/03/31 08:02:40;;;;;;;49.35;20.35;;;;;;;5.63;100.00;98333.75;5091390;28;20036;-73
2022/03/31 08:05:06;;;;;;;49.90;19.90;;;;;;;5.82;100.00;98340.22;5091814;28;20098;-70
2022/03/31 08:07:32;;;;;;;48.65;21.85;;;;;;;5.84;100.00;98337.38;5091875;28;20444;-71
2022/03/31 08:09:58;;;;;;;46.58;21.55;;;;;;;5.79;100.00;98334.50;5090556;28;20032;-70
2022/03/31 08:12:23;;;;;;;50.40;22.80;;;;;;;5.87;100.00;98329.09;5091402;28;20051;-71
2022/03/31 08:14:49;;;;;;;44.97;19.60;;;;;;;6.02;100.00;98329.88;5092031;28;20044;-71
2022/03/31 08:17:15;;;;;;;48.15;20.38;;;;;;;6.06;100.00;98325.00;5091747;28;20086;-72
2022/03/31 08:19:40;;;;;;;46.85;20.00;;;;;;;6.07;100.00;98326.66;5091681;28;20043;-73
2022/03/31 08:22:06;;;;;;;45.47;20.13;;;;;;;6.10;100.00;98323.63;5091311;28;20063;-73
2022/03/31 08:24:32;;;;;;;50.80;21.80;;;;;;;6.14;100.00;98328.34;5090364;28;20492;-72
2022/03/31 08:27:00;;;;;;;42.35;19.33;;;;;;;6.11;100.00;98326.06;5091523;28;20074;-72
2022/03/31 08:29:26;;;;;;;49.05;20.83;;;;;;;6.23;100.00;98327.19;5091569;28;20085;-72
2022/03/31 08:31:53;;;;;;;38.65;18.58;;;;;;;6.29;100.00;98324.78;5090210;28;20036;-73
2022/03/31 08:34:19;;;;;;;41.43;18.63;;;;;;;6.38;100.00;98320.97;5090130;28;20063;-72
2022/03/31 08:36:44;;;;;;;40.90;19.60;;;;;;;6.47;100.00;98325.13;5091617;28;20469;-72
2022/03/31 08:39:10;;;;;;;42.80;20.40;;;;;;;6.40;100.00;98322.44;5091495;28;20402;-73
2022/03/31 08:41:36;;;;;;;39.00;18.80;;;;;;;6.50;100.00;98324.72;5091421;28;20052;-72
2022/03/31 08:44:02;;;;;;;45.63;20.95;;;;;;;6.32;100.00;98322.56;5091196;28;20048;-72
2022/03/31 08:46:31;;;;;;;45.70;21.55;;;;;;;6.44;100.00;98330.78;5091360;28;20111;-72
2022/03/31 08:48:57;;;;;;;41.53;19.95;;;;;;;6.40;100.00;98329.56;5091355;28;20036;-73
2022/03/31 08:51:25;;;;;;;42.25;20.08;;;;;;;6.41;100.00;98333.84;5091079;28;20083;-72
2022/03/31 08:53:51;;;;;;;45.67;20.48;;;;;;;6.40;100.00;98335.66;5091083;28;20028;-73
2022/03/31 08:56:16;;;;;;;47.50;21.10;;;;;;;6.53;100.00;98333.09;5091245;28;20028;-73
2022/03/31 08:58:46;;;;;;;45.15;20.45;;;;;;;6.62;100.00;98333.75;5091287;28;20111;-71
2022/03/31 09:01:13;;;;;;;41.20;18.48;;;;;;;6.75;100.00;98327.72;5091371;28;20081;-72
2022/03/31 09:03:40;;;;;;;42.17;19.05;;;;;;;6.69;100.00;98329.31;5091041;28;20034;-72
2022/03/31 09:06:07;;;;;;;42.28;19.38;;;;;;;6.84;100.00;98328.38;5088280;28;20400;-72
2022/03/31 09:08:34;;;;;;;42.17;20.65;;;;;;;6.78;100.00;98325.53;5101604;28;20051;-71
2022/03/31 09:11:01;;;;;;;40.67;17.85;;;;;;;6.66;100.00;98318.31;5096487;28;20032;-71
2022/03/31 09:13:29;;;;;;;40.25;18.55;;;;;;;6.74;100.00;98318.97;5102160;28;20131;-71
2022/03/31 09:15:58;;;;;;;;;;;;;;;6.85;100.00;98327.41;5095479;28;20055;-72
2022/03/31 09:18:26;;;;;;;40.47;17.83;;;;;;;6.74;100.00;98318.97;5093696;28;19916;-72
2022/03/31 09:20:54;;;;;;;;;;;;;;;6.89;100.00;98323.31;5094559;28;20117;-72
2022/03/31 09:23:25;;;;;;;42.30;18.48;;;;;;;6.98;100.00;98322.16;5095292;28;19938;-72
2022/03/31 09:25:51;;;;;;;39.38;19.02;;;;;;;7.14;99.93;98311.22;5095129;28;20063;-72
2022/03/31 09:28:19;;;;;;;37.20;18.08;;;;;;;7.37;98.58;98304.75;5083582;28;20437;-73
2022/03/31 09:30:56;;;;;;;36.30;17.98;;;;;;;7.23;98.01;98306.56;5088664;28;20036;-73
2022/03/31 09:33:35;;;;;;;36.47;17.52;;;;;;;7.35;95.96;98297.84;5092270;28;20059;-72
2022/03/31 09:36:22;;;;;;;37.67;17.05;;;;;;;7.33;97.83;98310.47;5094539;28;20135;-72
2022/03/31 09:38:59;;;;;;;41.47;19.38;;;;;;;7.53;97.37;98307.06;5074135;28;20033;-72
2022/03/31 09:41:33;;;;;;;34.45;16.80;;;;;;;7.19;94.64;98300.84;5074304;28;20039;-72
2022/03/31 09:44:17;;;;;;;40.45;17.45;;;;;;;7.62;95.89;98308.50;5074060;28;20093;-72
2022/03/31 09:46:44;;;;;;;35.72;17.30;;;;;;;7.52;94.67;98308.91;5072707;28;20051;-72
2022/03/31 09:49:14;;;;;;;34.17;16.55;;;;;;;7.51;93.93;98314.41;5074433;28;20036;-71
2022/03/31 09:51:49;;;;;;;35.72;17.52;;;;;;;7.51;94.62;98317.06;5093960;28;20040;-72
2022/03/31 09:54:17;;;;;;;35.90;18.73;;;;;;;7.67;93.25;98316.66;5094180;28;20040;-71
2022/03/31 09:56:43;;;;;;;33.78;16.55;;;;;;;7.59;91.90;98314.22;5094127;28;20036;-71
2022/03/31 09:59:11;;;;;;;31.65;15.48;;;;;;;7.64;92.26;98311.78;5093860;28;20031;-72
2022/03/31 10:01:38;;;;;;;32.78;16.52;;;;;;;7.44;93.47;98310.91;5094104;28;20107;-72
2022/03/31 10:04:06;;;;;;;33.22;16.75;;;;;;;7.51;92.30;98312.56;5093368;28;20036;-72
2022/03/31 10:06:37;;;;;;;34.90;17.25;;;;;;;7.50;92.32;98304.81;5092685;28;20038;-72
2022/03/31 10:09:07;;;;;;;30.95;15.60;;;;;;;7.47;92.59;98311.31;5094149;28;20549;-71
2022/03/31 10:11:37;;;;;;;36.15;16.90;;;;;;;7.25;94.14;98308.00;5093844;28;20050;-71
2022/03/31 10:14:16;;;;;;;40.95;17.20;;;;;;;7.44;93.56;98306.44;5093644;28;20123;-73
2022/03/31 10:17:05;;;;;;;32.78;15.77;;;;;;;7.34;92.44;98312.09;5089547;28;20035;-72
2022/03/31 10:19:37;;;;;;;36.65;18.08;;;;;;;7.34;93.18;98309.44;5104384;28;20480;-71
2022/03/31 10:22:10;;;;;;;32.58;16.75;;;;;;;7.24;93.00;98311.69;5093747;28;20107;-71
2022/03/31 10:24:44;;;;;;;35.67;16.52;;;;;;;7.21;95.23;98305.94;5093449;28;20573;-71
2022/03/31 10:27:14;;;;;;;31.38;15.88;;;;;;;7.23;93.75;98301.25;5076597;28;20424;-71
2022/03/31 10:29:45;;;;;;;35.42;18.05;;;;;;;7.15;93.72;98293.50;5093376;28;20059;-71
2022/03/31 10:32:29;;;;;;;34.92;17.90;;;;;;;7.17;94.87;98291.47;5092497;28;20078;-71
2022/03/31 10:34:55;;;;;;;36.20;17.02;;;;;;;7.25;94.94;98292.13;5089430;22;20098;-76
2022/03/31 10:37:38;;;;;;;34.38;15.88;;;;;;;7.39;93.89;98286.84;5052329;28;20070;-76
2022/03/31 10:40:09;;;;;;;36.55;18.42;;;;;;;7.40;94.01;98288.47;5051968;28;20037;-74
2022/03/31 10:42:37;;;;;;;31.73;16.65;;;;;;;7.52;91.73;98282.41;5051289;28;20090;-74
2022/03/31 10:45:13;;;;;;;34.65;16.42;;;;;;;7.53;90.50;98275.25;5052793;28;20027;-73
2022/03/31 10:47:42;;;;;;;37.72;17.52;;;;;;;7.56;91.50;98282.78;5052689;28;20094;-72
2022/03/31 10:50:21;;;;;;;36.17;17.42;;;;;;;7.60;90.65;98278.75;5052672;28;20036;-72
2022/03/31 10:53:00;;;;;;;32.78;16.50;;;;;;;7.54;90.80;98280.34;5051329;28;20033;-73
2022/03/31 10:55:48;;;;;;;33.90;17.08;;;;;;;7.55;92.01;98287.28;5052558;28;20202;-76
2022/03/31 10:58:25;;;;;;;32.22;17.02;;;;;;;7.60;90.84;98287.50;5052593;28;20064;-76
2022/03/31 11:01:02;;;;;;;36.40;17.42;;;;;;;7.45;94.42;98292.16;5052619;28;20056;-73
2022/03/31 11:03:28;;;;;;;35.78;16.75;;;;;;;7.42;91.95;98283.78;5052289;28;20056;-74
2022/03/31 11:05:59;;;;;;;35.78;17.50;;;;;;;7.60;90.25;98290.16;5018256;28;20102;-76
2022/03/31 11:08:26;;;;;;;34.08;16.67;;;;;;;7.74;89.44;98277.72;5052364;28;20033;-76
2022/03/31 11:10:53;;;;;;;32.75;17.25;;;;;;;7.85;89.83;98271.84;5052375;28;20044;-74
2022/03/31 11:13:33;;;;;;;35.33;16.75;;;;;;;7.62;90.72;98274.84;5052305;28;20044;-73
2022/03/31 11:15:59;;;;;;;35.33;16.13;;;;;;;7.65;90.84;98273.66;5052600;28;20041;-75
2022/03/31 11:18:24;;;;;;;32.40;16.40;;;;;;;7.74;87.96;98259.19;5052249;28;20037;-74
2022/03/31 11:21:00;;;;;;;29.15;15.00;;;;;;;7.78;88.71;98265.72;5052255;28;20552;-74
2022/03/31 11:23:27;;;;;;;32.97;15.35;;;;;;;7.72;87.44;98258.56;5051710;28;20112;-76
2022/03/31 11:25:54;;;;;;;32.85;15.00;;;;;;;7.69;87.48;98256.31;5052036;28;20043;-74
2022/03/31 11:28:19;;;;;;;33.58;15.93;;;;;;;7.82;88.01;98250.19;5051940;28;20040;-75
2022/03/31 11:30:48;;;;;;;30.80;15.27;;;;;;;7.78;87.60;98244.50;5033695;28;20414;-75
2022/03/31 11:33:15;;;;;;;29.02;13.32;;;;;;;7.96;86.99;98249.22;5051853;28;20477;-76
2022/03/31 11:35:42;;;;;;;34.60;14.48;;;;;;;7.64;87.96;98245.53;5051353;28;20047;-73
2022/03/31 11:38:16;;;;;;;27.45;14.63;;;;;;;7.92;86.32;98244.50;5050773;28;20055;-75
2022/03/31 11:40:44;;;;;;;27.13;13.82;;;;;;;8.07;86.18;98242.44;5050903;28;20486;-76
2022/03/31 11:43:12;;;;;;;30.63;15.30;;;;;;;8.13;83.98;98234.50;5051698;28;20106;-73
2022/03/31 11:45:43;;;;;;;30.55;14.05;;;;;;;8.12;84.81;98229.41;5051838;28;20041;-72
2022/03/31 11:48:14;;;;;;;32.25;14.40;;;;;;;7.96;88.07;98235.13;5051709;28;20044;-73
2022/03/31 11:50:59;;;;;;;27.48;13.25;;;;;;;8.06;85.93;98228.38;5052098;28;20033;-72
2022/03/31 11:53:34;;;;;;;27.75;13.57;;;;;;;8.15;83.18;98224.50;5033738;28;20061;-72
2022/03/31 11:56:06;;;;;;;31.67;14.38;;;;;;;8.13;85.06;98226.53;5051599;28;20119;-72
2022/03/31 11:58:42;;;;;;;25.15;12.75;;;;;;;8.23;83.45;98225.31;5051671;28;20029;-73
2022/03/31 12:01:08;;;;;;;25.77;11.98;;;;;;;8.31;82.91;98222.44;5050163;28;20033;-72
2022/03/31 12:03:37;;;;;;;25.42;12.68;;;;;;;8.36;83.56;98225.31;5051168;28;20033;-73
2022/03/31 12:06:05;;;;;;;31.90;13.88;;;;;;;8.23;84.99;98226.13;5051516;28;20559;-72
2022/03/31 12:08:31;;;;;;;28.27;13.73;;;;;;;8.33;83.71;98221.19;5051466;28;20029;-73
2022/03/31 12:10:58;;;;;;;26.73;13.52;;;;;;;8.36;81.68;98220.81;5051378;28;20120;-72
2022/03/31 12:13:26;;;;;;;26.07;13.10;;;;;;;8.31;81.80;98220.59;5051006;28;20055;-73
2022/03/31 12:16:03;;;;;;;26.15;13.85;;;;;;;8.31;81.94;98222.44;5051351;28;20835;-72
2022/03/31 12:18:30;;;;;;;32.47;14.93;;;;;;;8.30;83.05;98221.63;5051299;28;20098;-73
2022/03/31 12:21:00;;;;;;;29.30;14.02;;;;;;;8.44;82.17;98214.47;5051438;28;20033;-72
2022/03/31 12:23:26;;;;;;;28.17;12.93;;;;;;;8.51;82.50;98219.75;5050838;28;20441;-72
2022/03/31 12:25:53;;;;;;;25.38;13.27;;;;;;;8.42;83.21;98214.69;5051326;28;20083;-72
2022/03/31 12:28:23;;;;;;;23.60;12.73;;;;;;;8.31;81.59;98220.59;5051262;28;20060;-72
2022/03/31 12:30:53;;;;;;;29.05;13.18;;;;;;;8.55;81.53;98213.00;5051183;28;20049;-73
2022/03/31 12:33:26;;;;;;;24.77;12.75;;;;;;;8.29;82.02;98211.22;5050799;28;20427;-72
2022/03/31 12:35:57;;;;;;;26.90;13.45;;;;;;;8.33;83.02;98221.19;5051206;28;20401;-72
2022/03/31 12:38:36;;;;;;;24.98;12.05;;;;;;;8.51;81.14;98206.50;5051184;28;20131;-72
2022/03/31 12:41:09;;;;;;;22.73;12.00;;;;;;;8.35;80.77;98200.63;5051320;28;20091;-71
2022/03/31 12:43:35;;;;;;;27.08;13.35;;;;;;;8.34;81.78;98204.25;5053620;28;20037;-72
2022/03/31 12:46:12;;;;;;;25.92;12.05;;;;;;;8.43;83.97;98211.00;5055236;28;20043;-72
2022/03/31 12:48:38;;;;;;;26.63;12.80;;;;;;;8.46;81.33;98206.28;5055054;28;20040;-72
2022/03/31 12:51:04;;;;;;;29.40;12.77;;;;;;;8.27;80.04;98200.78;5055013;28;20040;-73
2022/03/31 12:53:41;;;;;;;29.60;14.25;;;;;;;8.41;79.93;98207.75;5036982;28;20033;-73
2022/03/31 12:56:09;;;;;;;27.60;12.60;;;;;;;8.45;81.12;98207.31;5037618;28;20521;-72
2022/03/31 12:58:38;;;;;;;27.63;12.85;;;;;;;8.52;81.80;98210.75;5054225;28;20037;-72
2022/03/31 13:01:03;;;;;;;29.38;12.85;;;;;;;8.56;82.05;98209.34;5054159;28;20029;-73
2022/03/31 13:03:29;;;;;;;28.75;13.48;;;;;;;8.41;83.43;98207.75;5055006;28;20032;-72
2022/03/31 13:05:55;;;;;;;33.80;14.68;;;;;;;8.16;84.15;98202.28;5053770;28;20048;-73
2022/03/31 13:08:20;;;;;;;24.48;12.20;;;;;;;8.28;82.75;98207.75;5054815;28;20036;-73
2022/03/31 13:10:46;;;;;;;31.25;14.68;;;;;;;8.25;82.59;98197.53;5054522;28;20707;-73
2022/03/31 13:13:12;;;;;;;30.23;13.40;;;;;;;8.27;82.71;98199.97;5052937;28;20084;-72
2022/03/31 13:15:41;;;;;;;31.42;14.15;;;;;;;8.40;81.20;98187.53;5054537;28;20111;-72
2022/03/31 13:18:08;;;;;;;29.80;15.50;;;;;;;8.34;82.94;98190.16;5053193;28;20128;-72
2022/03/31 13:20:35;;;;;;;27.08;17.63;;;;;;;8.50;81.64;98192.41;5020449;28;20041;-72
2022/03/31 13:23:00;;;;;;;33.93;18.50;;;;;;;8.48;81.63;98201.63;5054239;28;20035;-72
2022/03/31 13:25:26;;;;;;;30.98;14.98;;;;;;;8.53;82.21;98193.81;5054252;28;20058;-71
2022/03/31 13:27:52;;;;;;;31.20;16.73;;;;;;;8.51;81.07;98190.56;5054318;28;20037;-71
2022/03/31 13:30:17;;;;;;;26.70;13.48;;;;;;;8.46;81.50;98193.03;5054496;28;20375;-72
2022/03/31 13:32:44;;;;;;;26.15;13.40;;;;;;;8.23;83.85;98194.28;5053899;28;20077;-73
2022/03/31 13:35:10;;;;;;;25.33;12.05;;;;;;;8.20;82.24;98191.22;5054140;28;20036;-74
2022/03/31 13:37:37;;;;;;;35.75;19.15;;;;;;;8.46;80.89;98193.84;5054211;28;20028;-75
2022/03/31 13:40:06;;;;;;;26.95;12.82;;;;;;;8.29;81.21;98201.44;5054575;28;20041;-74
2022/03/31 13:42:35;;;;;;;28.90;12.85;;;;;;;8.23;80.94;98193.47;5053761;28;20035;-75
2022/03/31 13:45:01;;;;;;;27.40;14.63;;;;;;;8.35;80.61;98195.31;5053918;28;20025;-75
2022/03/31 13:47:27;;;;;;;29.65;13.68;;;;;;;8.40;84.35;98192.84;5053877;28;20106;-75
2022/03/31 13:49:52;;;;;;;30.27;13.15;;;;;;;8.41;85.03;98194.50;5052656;28;20494;-75
2022/03/31 13:52:18;;;;;;;28.45;14.18;;;;;;;8.25;87.12;98194.91;5052299;28;20065;-74
2022/03/31 13:54:44;;;;;;;31.42;13.88;;;;;;;8.19;87.03;98193.06;5053302;28;20037;-74
2022/03/31 14:02:39;;;;;;;32.03;14.13;;;;;;;8.08;88.04;98191.03;5053991;28;20068;-72
2022/03/31 14:05:06;;;;;;;29.77;13.88;;;;;;;8.10;86.39;98191.66;5053618;28;20068;-75
2022/03/31 14:07:32;;;;;;;32.30;15.20;;;;;;;8.26;86.25;98185.09;5052304;28;20463;-74
2022/03/31 14:09:57;;;;;;;37.13;17.42;;;;;;;8.23;85.08;98189.00;5053431;28;20037;-72
2022/03/31 14:12:23;;;;;;;32.53;15.40;;;;;;;8.20;87.30;98186.75;5053252;28;20390;-72
2022/03/31 14:14:48;;;;;;;35.28;14.57;;;;;;;8.29;87.51;98188.16;5053403;28;20429;-75
2022/03/31 14:17:14;;;;;;;33.40;14.88;;;;;;;7.95;89.97;98181.28;5052376;28;20079;-71
2022/03/31 14:19:41;;;;;;;37.13;17.65;;;;;;;8.06;88.88;98183.31;5052475;28;20083;-72
2022/03/31 14:22:07;;;;;;;44.00;20.73;;;;;;;7.67;94.29;98191.28;5053340;28;20033;-72
2022/03/31 14:24:34;;;;;;;49.08;20.60;;;;;;;7.84;95.93;98196.00;5053122;28;20098;-72
2022/03/31 14:27:01;;;;;;;44.92;20.00;;;;;;;7.72;94.65;98189.66;5053406;28;20421;-73
2022/03/31 14:29:27;;;;;;;48.33;22.83;;;;;;;7.64;94.07;98175.81;5053504;28;20440;-71
2022/03/31 14:31:53;;;;;;;48.35;22.27;;;;;;;7.71;94.63;98190.69;5052935;28;20029;-74
2022/03/31 14:34:20;;;;;;;45.60;21.02;;;;;;;7.72;91.59;98180.91;5053115;28;20072;-74
2022/03/31 14:36:49;;;;;;;50.17;21.70;;;;;;;7.69;92.55;98179.47;5051806;28;20033;-75
2022/03/31 14:39:16;;;;;;;46.53;20.30;;;;;;;7.58;91.54;98188.03;5053045;28;20192;-75
2022/03/31 14:41:44;;;;;;;49.33;21.52;;;;;;;7.57;96.27;98183.78;5052832;28;20485;-74
2022/03/31 14:44:11;;;;;;;;;;;;;;;7.73;93.88;98182.53;5052033;28;20056;-72
2022/03/31 14:46:37;;;;;;;44.55;20.83;;;;;;;7.63;94.91;98185.59;5052859;28;19920;-75
2022/03/31 14:49:07;;;;;;;47.78;22.13;;;;;;;7.62;94.71;98181.31;5053045;28;20041;-72
2022/03/31 14:51:32;;;;;;;44.28;21.90;;;;;;;7.46;95.80;98171.94;5052610;28;20112;-75
2022/03/31 14:53:58;;;;;;;43.33;20.45;;;;;;;7.59;94.00;98185.19;5052958;28;20140;-75
2022/03/31 14:56:24;;;;;;;40.45;20.52;;;;;;;7.52;94.84;98179.06;5053149;28;20089;-76
2022/03/31 14:58:50;;;;;;;46.05;21.88;;;;;;;7.58;93.88;98182.75;5051604;28;20090;-72
2022/03/31 15:01:21;;;;;;;48.08;23.85;;;;;;;7.65;97.01;98180.91;5052812;28;20037;-72
2022/03/31 15:03:47;;;;;;;50.60;23.17;;;;;;;7.42;98.02;98181.28;5051068;28;20044;-72
2022/03/31 15:06:14;;;;;;;43.28;21.35;;;;;;;7.49;95.74;98171.50;5051764;28;20167;-75
2022/03/31 15:08:40;;;;;;;45.42;20.50;;;;;;;7.42;95.60;98181.28;5052369;28;20036;-75
2022/03/31 15:16:35;;;;;;;52.03;23.88;;;;;;;7.54;99.25;98178.88;5052301;28;20037;-72
2022/03/31 15:19:00;;;;;;;46.22;21.95;;;;;;;7.41;98.80;98187.63;5034456;28;20068;-72
2022/03/31 15:21:26;;;;;;;48.50;22.73;;;;;;;7.48;100.00;98190.28;5052155;28;20095;-72
2022/03/31 15:23:53;;;;;;;44.70;20.73;;;;;;;7.44;99.18;98187.22;5051964;28;20069;-72
2022/03/31 15:26:19;;;;;;;51.58;22.15;;;;;;;7.33;100.00;98191.28;5052011;28;20052;-71
2022/03/31 15:28:44;;;;;;;54.10;25.05;;;;;;;7.26;99.98;98195.75;5052206;28;20040;-71
2022/03/31 15:31:10;;;;;;;60.85;25.85;;;;;;;7.17;100.00;98191.69;5051839;28;20025;-72
2022/03/31 15:33:35;;;;;;;58.92;27.42;;;;;;;7.18;100.00;98200.44;5056475;28;20506;-72
2022/03/31 15:36:02;;;;;;;64.38;27.73;;;;;;;7.21;100.00;98200.03;5061005;28;20029;-71
2022/03/31 15:38:27;;;;;;;67.57;29.65;;;;;;;7.12;100.00;98204.69;5060799;28;20036;-71
2022/03/31 15:40:53;;;;;;;67.40;29.23;;;;;;;7.15;100.00;98201.63;5060722;28;20070;-71
2022/03/31 15:43:19;;;;;;;70.63;29.90;;;;;;;7.08;100.00;98204.28;5050451;28;20156;-72
2022/03/31 15:45:44;;;;;;;61.80;29.10;;;;;;;6.98;100.00;98203.84;5051770;28;20040;-72
2022/03/31 15:48:10;;;;;;;59.13;26.38;;;;;;;7.00;100.00;98209.75;5051794;28;20413;-72
2022/03/31 15:50:36;;;;;;;60.63;25.90;;;;;;;7.05;100.00;98201.22;5050288;28;20037;-72
2022/03/31 15:53:02;;;;;;;66.32;27.80;;;;;;;7.07;100.00;98207.94;5051927;28;20047;-72
2022/03/31 15:55:30;;;;;;;64.60;26.75;;;;;;;7.03;100.00;98204.06;5052021;28;20029;-72
2022/03/31 15:57:56;;;;;;;64.28;26.23;;;;;;;6.98;100.00;98206.50;5051465;28;20482;-71